Aeroporto :
LOGIN :

Iscrizione | Disclaimer

   EN    FR    IT 

 










Sommario :    VFR   VFR Marginale   IFR   IFR Intensivo   IFR Molto Intensivo
Visibilità : 
Base nubi : 
>= 8 km
>= 3000ft
5 / 8 km
1000 / 3000 ft
1500m / 5 km
500 / 1000 ft
800 / 1500m
200 / 500 ft
< 800m
< 200 ft
Simboli :   Temporali  Nebbia  Neve Forte  Precipitazioni Forti  Vento > 20 kt
SIGMETs :   Varie  Temporali  Ghiacco  Turbolenza  Onda orograficha  Ceneri Vulcaniche






- Altitudine del aeroporto : 160 ft
- Codice IATA : FMO


EDDG - Münster Osnabrück Int.

ULTIMO METAR :
  • 191750Z 21004KT 160V240 9999 FEW020 04/03 Q1018 NOSIG

METARs OBSOLETI :
  • 191720Z 21004KT 9999 FEW020 05/04 Q1017 NOSIG
  • 191650Z 19003KT 140V220 9999 FEW020 04/04 Q1017 NOSIG
  • 191620Z 18004KT 9999 FEW018 05/04 Q1017 NOSIG
  • 191550Z 17004KT 9999 FEW014 05/04 Q1017 NOSIG
  • 191520Z 17003KT 9999 FEW012 06/04 Q1017 NOSIG

TAF TAF EDDG
Valido dal 19 a 18 ore il 20 a 18 ore UTC


191700Z 1918/2018 VRB02KT 9999 SCT020
BECMG 1920/1922 2500 BR
BECMG 1923/2001 1200 BR
BECMG 2001/2003 0400 FG BKN002
TEMPO 2004/2010 0200 FZFG VV000
TEMPO 2012/2018 4000 BR BKN005



MetMap, La meteo Aeronautica in un colpo d'occhio ! - Copyright ORBIFLY Dicembre 2007 - Disclaimer

ORBIFLY MET'MAP TEAM :

Programmazione e sviluppo : Alexandra Zaïnal
Concezione e sviluppo : Baudouin d'Aumeries
Co-Programmazione e sviluppo : Marc-Olivier Méhu
Supporto tecnico e logistico : Manuel Goepfert
Aiuto per la traduzione : Arnaldo La Scala

Contatto : metmap@orbifly.com




FONTI E CREDITI :

   NOAA